sensor_id;sensor_type;location;lat;lon;timestamp;P1;durP1;ratioP1;P2;durP2;ratioP2
12585;SDS011;6358;50.760;0.282;2023-04-24T00:01:15;1.70;;;1.60;;
12585;SDS011;6358;50.760;0.282;2023-04-24T00:03:42;1.60;;;1.50;;
12585;SDS011;6358;50.760;0.282;2023-04-24T00:06:08;1.70;;;1.60;;
12585;SDS011;6358;50.760;0.282;2023-04-24T00:08:34;1.90;;;1.80;;
12585;SDS011;6358;50.760;0.282;2023-04-24T00:11:01;1.80;;;1.70;;
12585;SDS011;6358;50.760;0.282;2023-04-24T00:13:27;1.80;;;1.70;;
12585;SDS011;6358;50.760;0.282;2023-04-24T00:15:53;1.80;;;1.70;;
12585;SDS011;6358;50.760;0.282;2023-04-24T00:18:19;1.60;;;1.50;;
12585;SDS011;6358;50.760;0.282;2023-04-24T00:20:45;1.90;;;1.77;;
12585;SDS011;6358;50.760;0.282;2023-04-24T00:23:12;1.90;;;1.80;;
12585;SDS011;6358;50.760;0.282;2023-04-24T00:25:38;1.90;;;1.80;;
12585;SDS011;6358;50.760;0.282;2023-04-24T00:28:05;2.07;;;1.80;;
12585;SDS011;6358;50.760;0.282;2023-04-24T00:30:31;2.20;;;2.00;;
12585;SDS011;6358;50.760;0.282;2023-04-24T00:32:57;1.87;;;1.77;;
12585;SDS011;6358;50.760;0.282;2023-04-24T00:35:23;1.70;;;1.60;;
12585;SDS011;6358;50.760;0.282;2023-04-24T00:37:49;2.00;;;1.70;;
12585;SDS011;6358;50.760;0.282;2023-04-24T00:40:15;1.83;;;1.73;;
12585;SDS011;6358;50.760;0.282;2023-04-24T00:42:42;1.70;;;1.60;;
12585;SDS011;6358;50.760;0.282;2023-04-24T00:45:09;2.20;;;2.10;;
12585;SDS011;6358;50.760;0.282;2023-04-24T00:47:35;2.07;;;1.97;;
12585;SDS011;6358;50.760;0.282;2023-04-24T00:50:05;3.50;;;1.70;;
12585;SDS011;6358;50.760;0.282;2023-04-24T00:52:31;1.93;;;1.83;;
12585;SDS011;6358;50.760;0.282;2023-04-24T00:54:57;2.20;;;2.00;;
12585;SDS011;6358;50.760;0.282;2023-04-24T00:57:24;4.00;;;2.00;;
12585;SDS011;6358;50.760;0.282;2023-04-24T00:59:50;2.27;;;2.07;;
12585;SDS011;6358;50.760;0.282;2023-04-24T01:02:17;2.20;;;2.00;;
12585;SDS011;6358;50.760;0.282;2023-04-24T01:04:43;2.27;;;1.90;;
12585;SDS011;6358;50.760;0.282;2023-04-24T01:07:09;2.10;;;1.90;;
12585;SDS011;6358;50.760;0.282;2023-04-24T01:09:39;2.40;;;2.13;;
12585;SDS011;6358;50.760;0.282;2023-04-24T01:12:09;2.10;;;2.00;;
12585;SDS011;6358;50.760;0.282;2023-04-24T01:14:35;2.07;;;1.97;;
12585;SDS011;6358;50.760;0.282;2023-04-24T01:17:02;2.20;;;2.10;;
12585;SDS011;6358;50.760;0.282;2023-04-24T01:19:28;2.37;;;2.13;;
12585;SDS011;6358;50.760;0.282;2023-04-24T01:21:54;2.40;;;2.20;;
12585;SDS011;6358;50.760;0.282;2023-04-24T01:24:23;2.60;;;2.40;;
12585;SDS011;6358;50.760;0.282;2023-04-24T01:26:50;2.50;;;2.30;;
12585;SDS011;6358;50.760;0.282;2023-04-24T01:29:16;2.57;;;2.37;;
12585;SDS011;6358;50.760;0.282;2023-04-24T01:31:42;2.40;;;2.20;;
12585;SDS011;6358;50.760;0.282;2023-04-24T01:34:08;2.67;;;2.47;;
12585;SDS011;6358;50.760;0.282;2023-04-24T01:36:34;2.00;;;1.90;;
12585;SDS011;6358;50.760;0.282;2023-04-24T01:39:01;2.47;;;2.30;;
12585;SDS011;6358;50.760;0.282;2023-04-24T01:41:28;2.43;;;2.23;;
12585;SDS011;6358;50.760;0.282;2023-04-24T01:43:54;2.60;;;2.40;;
12585;SDS011;6358;50.760;0.282;2023-04-24T01:46:21;2.93;;;2.20;;
12585;SDS011;6358;50.760;0.282;2023-04-24T01:48:47;2.60;;;2.40;;
12585;SDS011;6358;50.760;0.282;2023-04-24T01:51:13;2.60;;;2.40;;
12585;SDS011;6358;50.760;0.282;2023-04-24T01:53:39;2.47;;;2.27;;
12585;SDS011;6358;50.760;0.282;2023-04-24T01:56:06;2.87;;;2.67;;
12585;SDS011;6358;50.760;0.282;2023-04-24T01:58:32;3.93;;;2.47;;
12585;SDS011;6358;50.760;0.282;2023-04-24T02:00:58;2.83;;;2.63;;
12585;SDS011;6358;50.760;0.282;2023-04-24T02:03:25;2.30;;;2.03;;
12585;SDS011;6358;50.760;0.282;2023-04-24T02:05:51;2.80;;;2.60;;
12585;SDS011;6358;50.760;0.282;2023-04-24T02:08:17;2.67;;;2.47;;
12585;SDS011;6358;50.760;0.282;2023-04-24T02:10:43;2.70;;;2.50;;
12585;SDS011;6358;50.760;0.282;2023-04-24T02:13:09;2.50;;;2.30;;
12585;SDS011;6358;50.760;0.282;2023-04-24T02:15:35;3.03;;;2.50;;
12585;SDS011;6358;50.760;0.282;2023-04-24T02:18:02;2.60;;;2.40;;
12585;SDS011;6358;50.760;0.282;2023-04-24T02:20:28;2.60;;;2.40;;
12585;SDS011;6358;50.760;0.282;2023-04-24T02:22:54;2.67;;;2.47;;
12585;SDS011;6358;50.760;0.282;2023-04-24T02:25:20;2.70;;;2.50;;
12585;SDS011;6358;50.760;0.282;2023-04-24T02:27:46;2.80;;;2.60;;
12585;SDS011;6358;50.760;0.282;2023-04-24T02:30:12;2.87;;;2.50;;
12585;SDS011;6358;50.760;0.282;2023-04-24T02:32:38;2.90;;;2.70;;
12585;SDS011;6358;50.760;0.282;2023-04-24T02:35:05;2.70;;;2.50;;
12585;SDS011;6358;50.760;0.282;2023-04-24T02:37:31;2.53;;;2.33;;
12585;SDS011;6358;50.760;0.282;2023-04-24T02:39:57;3.30;;;2.50;;
12585;SDS011;6358;50.760;0.282;2023-04-24T02:42:23;2.90;;;2.70;;
12585;SDS011;6358;50.760;0.282;2023-04-24T02:44:50;2.80;;;2.60;;
12585;SDS011;6358;50.760;0.282;2023-04-24T02:47:16;2.50;;;2.30;;
12585;SDS011;6358;50.760;0.282;2023-04-24T02:49:42;2.93;;;2.73;;
12585;SDS011;6358;50.760;0.282;2023-04-24T02:52:09;2.93;;;2.73;;
12585;SDS011;6358;50.760;0.282;2023-04-24T02:54:35;3.10;;;2.80;;
12585;SDS011;6358;50.760;0.282;2023-04-24T02:57:01;3.30;;;2.50;;
12585;SDS011;6358;50.760;0.282;2023-04-24T02:59:27;2.90;;;2.70;;
12585;SDS011;6358;50.760;0.282;2023-04-24T03:01:54;2.60;;;2.40;;
12585;SDS011;6358;50.760;0.282;2023-04-24T03:04:20;2.70;;;2.50;;
12585;SDS011;6358;50.760;0.282;2023-04-24T03:06:47;2.70;;;2.50;;
12585;SDS011;6358;50.760;0.282;2023-04-24T03:09:13;3.10;;;2.90;;
12585;SDS011;6358;50.760;0.282;2023-04-24T03:11:39;2.83;;;2.63;;
12585;SDS011;6358;50.760;0.282;2023-04-24T03:14:05;2.80;;;2.60;;
12585;SDS011;6358;50.760;0.282;2023-04-24T03:16:31;2.80;;;2.60;;
12585;SDS011;6358;50.760;0.282;2023-04-24T03:18:58;3.30;;;2.90;;
12585;SDS011;6358;50.760;0.282;2023-04-24T03:21:24;3.67;;;2.80;;
12585;SDS011;6358;50.760;0.282;2023-04-24T03:23:50;2.70;;;2.50;;
12585;SDS011;6358;50.760;0.282;2023-04-24T03:26:16;2.87;;;2.57;;
12585;SDS011;6358;50.760;0.282;2023-04-24T03:28:43;2.87;;;2.67;;
12585;SDS011;6358;50.760;0.282;2023-04-24T03:31:09;2.63;;;2.43;;
12585;SDS011;6358;50.760;0.282;2023-04-24T03:33:35;2.70;;;2.50;;
12585;SDS011;6358;50.760;0.282;2023-04-24T03:36:01;3.37;;;2.80;;
12585;SDS011;6358;50.760;0.282;2023-04-24T03:38:27;2.67;;;2.47;;
12585;SDS011;6358;50.760;0.282;2023-04-24T03:40:53;2.70;;;2.50;;
12585;SDS011;6358;50.760;0.282;2023-04-24T03:43:19;2.80;;;2.60;;
12585;SDS011;6358;50.760;0.282;2023-04-24T03:45:46;3.73;;;2.80;;
12585;SDS011;6358;50.760;0.282;2023-04-24T03:48:12;2.90;;;2.70;;
12585;SDS011;6358;50.760;0.282;2023-04-24T03:50:38;3.10;;;2.60;;
12585;SDS011;6358;50.760;0.282;2023-04-24T03:53:04;3.43;;;2.83;;
12585;SDS011;6358;50.760;0.282;2023-04-24T03:55:30;2.73;;;2.53;;
12585;SDS011;6358;50.760;0.282;2023-04-24T03:57:56;2.87;;;2.67;;
12585;SDS011;6358;50.760;0.282;2023-04-24T04:00:22;3.13;;;2.90;;
12585;SDS011;6358;50.760;0.282;2023-04-24T04:02:48;3.03;;;2.53;;
12585;SDS011;6358;50.760;0.282;2023-04-24T04:05:14;3.37;;;2.90;;
12585;SDS011;6358;50.760;0.282;2023-04-24T04:07:40;2.70;;;2.43;;
12585;SDS011;6358;50.760;0.282;2023-04-24T04:10:07;2.67;;;2.47;;
12585;SDS011;6358;50.760;0.282;2023-04-24T04:12:33;3.17;;;2.70;;
12585;SDS011;6358;50.760;0.282;2023-04-24T04:14:59;3.00;;;2.80;;
12585;SDS011;6358;50.760;0.282;2023-04-24T04:17:25;3.20;;;2.80;;
12585;SDS011;6358;50.760;0.282;2023-04-24T04:19:51;3.07;;;2.77;;
12585;SDS011;6358;50.760;0.282;2023-04-24T04:22:17;2.77;;;2.57;;
12585;SDS011;6358;50.760;0.282;2023-04-24T04:24:43;3.03;;;2.83;;
12585;SDS011;6358;50.760;0.282;2023-04-24T04:27:09;3.00;;;2.80;;
12585;SDS011;6358;50.760;0.282;2023-04-24T04:29:36;3.03;;;2.83;;
12585;SDS011;6358;50.760;0.282;2023-04-24T04:32:02;2.77;;;2.57;;
12585;SDS011;6358;50.760;0.282;2023-04-24T04:34:28;3.00;;;2.80;;
12585;SDS011;6358;50.760;0.282;2023-04-24T04:36:54;2.90;;;2.70;;
12585;SDS011;6358;50.760;0.282;2023-04-24T04:39:20;3.07;;;2.80;;
12585;SDS011;6358;50.760;0.282;2023-04-24T04:41:47;2.93;;;2.73;;
12585;SDS011;6358;50.760;0.282;2023-04-24T04:44:14;2.80;;;2.60;;
12585;SDS011;6358;50.760;0.282;2023-04-24T04:46:40;2.83;;;2.63;;
12585;SDS011;6358;50.760;0.282;2023-04-24T04:49:06;3.30;;;2.80;;
12585;SDS011;6358;50.760;0.282;2023-04-24T04:51:36;2.77;;;2.57;;
12585;SDS011;6358;50.760;0.282;2023-04-24T04:54:02;2.97;;;2.77;;
12585;SDS011;6358;50.760;0.282;2023-04-24T04:56:28;2.80;;;2.60;;
12585;SDS011;6358;50.760;0.282;2023-04-24T04:58:54;2.90;;;2.70;;
12585;SDS011;6358;50.760;0.282;2023-04-24T05:01:21;2.80;;;2.60;;
12585;SDS011;6358;50.760;0.282;2023-04-24T05:03:48;2.90;;;2.70;;
12585;SDS011;6358;50.760;0.282;2023-04-24T05:06:14;2.83;;;2.53;;
12585;SDS011;6358;50.760;0.282;2023-04-24T05:08:40;2.80;;;2.60;;
12585;SDS011;6358;50.760;0.282;2023-04-24T05:11:06;2.73;;;2.53;;
12585;SDS011;6358;50.760;0.282;2023-04-24T05:13:32;2.80;;;2.60;;
12585;SDS011;6358;50.760;0.282;2023-04-24T05:15:58;3.30;;;3.00;;
12585;SDS011;6358;50.760;0.282;2023-04-24T05:18:24;2.90;;;2.70;;
12585;SDS011;6358;50.760;0.282;2023-04-24T05:20:50;3.03;;;2.83;;
12585;SDS011;6358;50.760;0.282;2023-04-24T05:23:16;3.03;;;2.83;;
12585;SDS011;6358;50.760;0.282;2023-04-24T05:25:43;3.10;;;2.90;;
12585;SDS011;6358;50.760;0.282;2023-04-24T05:28:09;2.73;;;2.53;;
12585;SDS011;6358;50.760;0.282;2023-04-24T05:30:35;2.90;;;2.70;;
12585;SDS011;6358;50.760;0.282;2023-04-24T05:33:01;3.30;;;3.00;;
12585;SDS011;6358;50.760;0.282;2023-04-24T05:35:27;2.90;;;2.70;;
12585;SDS011;6358;50.760;0.282;2023-04-24T05:37:53;3.07;;;2.87;;
12585;SDS011;6358;50.760;0.282;2023-04-24T05:40:19;2.80;;;2.57;;
12585;SDS011;6358;50.760;0.282;2023-04-24T05:42:45;3.10;;;2.80;;
12585;SDS011;6358;50.760;0.282;2023-04-24T05:45:12;2.90;;;2.53;;
12585;SDS011;6358;50.760;0.282;2023-04-24T05:47:41;2.97;;;2.77;;
12585;SDS011;6358;50.760;0.282;2023-04-24T05:50:09;2.90;;;2.70;;
12585;SDS011;6358;50.760;0.282;2023-04-24T05:52:35;2.70;;;2.50;;
12585;SDS011;6358;50.760;0.282;2023-04-24T05:55:01;3.23;;;2.93;;
12585;SDS011;6358;50.760;0.282;2023-04-24T05:57:27;3.10;;;2.67;;
12585;SDS011;6358;50.760;0.282;2023-04-24T05:59:53;3.73;;;3.07;;
12585;SDS011;6358;50.760;0.282;2023-04-24T06:02:19;3.30;;;3.00;;
12585;SDS011;6358;50.760;0.282;2023-04-24T06:04:45;3.20;;;2.90;;
12585;SDS011;6358;50.760;0.282;2023-04-24T06:07:12;3.43;;;2.80;;
12585;SDS011;6358;50.760;0.282;2023-04-24T06:09:38;2.70;;;2.50;;
12585;SDS011;6358;50.760;0.282;2023-04-24T06:12:04;2.97;;;2.77;;
12585;SDS011;6358;50.760;0.282;2023-04-24T06:14:32;2.73;;;2.53;;
12585;SDS011;6358;50.760;0.282;2023-04-24T06:16:58;3.33;;;3.00;;
12585;SDS011;6358;50.760;0.282;2023-04-24T06:19:24;2.83;;;2.63;;
12585;SDS011;6358;50.760;0.282;2023-04-24T06:21:50;2.87;;;2.67;;
12585;SDS011;6358;50.760;0.282;2023-04-24T06:24:16;2.83;;;2.63;;
12585;SDS011;6358;50.760;0.282;2023-04-24T06:26:42;2.60;;;2.40;;
12585;SDS011;6358;50.760;0.282;2023-04-24T06:29:08;2.90;;;2.63;;
12585;SDS011;6358;50.760;0.282;2023-04-24T06:31:34;2.80;;;2.60;;
12585;SDS011;6358;50.760;0.282;2023-04-24T06:34:02;2.90;;;2.70;;
12585;SDS011;6358;50.760;0.282;2023-04-24T06:36:28;2.70;;;2.50;;
12585;SDS011;6358;50.760;0.282;2023-04-24T06:38:55;2.83;;;2.63;;
12585;SDS011;6358;50.760;0.282;2023-04-24T06:41:22;2.80;;;2.60;;
12585;SDS011;6358;50.760;0.282;2023-04-24T06:43:48;3.07;;;2.60;;
12585;SDS011;6358;50.760;0.282;2023-04-24T06:46:14;3.03;;;2.77;;
12585;SDS011;6358;50.760;0.282;2023-04-24T06:48:40;2.90;;;2.70;;
12585;SDS011;6358;50.760;0.282;2023-04-24T06:51:07;2.90;;;2.70;;
12585;SDS011;6358;50.760;0.282;2023-04-24T06:53:33;2.90;;;2.60;;
12585;SDS011;6358;50.760;0.282;2023-04-24T06:55:59;2.73;;;2.53;;
12585;SDS011;6358;50.760;0.282;2023-04-24T06:58:25;2.93;;;2.60;;
12585;SDS011;6358;50.760;0.282;2023-04-24T07:00:51;2.80;;;2.53;;
12585;SDS011;6358;50.760;0.282;2023-04-24T07:03:17;3.10;;;2.80;;
12585;SDS011;6358;50.760;0.282;2023-04-24T07:05:43;2.87;;;2.67;;
12585;SDS011;6358;50.760;0.282;2023-04-24T07:08:11;3.00;;;2.80;;
12585;SDS011;6358;50.760;0.282;2023-04-24T07:10:37;3.03;;;2.73;;
12585;SDS011;6358;50.760;0.282;2023-04-24T07:13:03;2.40;;;2.30;;
12585;SDS011;6358;50.760;0.282;2023-04-24T07:15:30;3.33;;;2.67;;
12585;SDS011;6358;50.760;0.282;2023-04-24T07:17:57;2.60;;;2.40;;
12585;SDS011;6358;50.760;0.282;2023-04-24T07:20:23;2.77;;;2.37;;
12585;SDS011;6358;50.760;0.282;2023-04-24T07:22:49;4.27;;;2.40;;
12585;SDS011;6358;50.760;0.282;2023-04-24T07:25:16;2.53;;;2.33;;
12585;SDS011;6358;50.760;0.282;2023-04-24T07:27:42;2.70;;;2.47;;
12585;SDS011;6358;50.760;0.282;2023-04-24T07:30:09;2.70;;;2.50;;
12585;SDS011;6358;50.760;0.282;2023-04-24T07:32:35;3.00;;;2.70;;
12585;SDS011;6358;50.760;0.282;2023-04-24T07:35:01;2.60;;;2.40;;
12585;SDS011;6358;50.760;0.282;2023-04-24T07:37:28;2.70;;;2.50;;
12585;SDS011;6358;50.760;0.282;2023-04-24T07:39:54;2.40;;;2.20;;
12585;SDS011;6358;50.760;0.282;2023-04-24T07:42:20;3.07;;;2.87;;
12585;SDS011;6358;50.760;0.282;2023-04-24T07:44:46;2.27;;;2.07;;
12585;SDS011;6358;50.760;0.282;2023-04-24T07:47:13;2.60;;;2.40;;
12585;SDS011;6358;50.760;0.282;2023-04-24T07:49:41;2.40;;;2.20;;
12585;SDS011;6358;50.760;0.282;2023-04-24T07:52:08;2.60;;;2.40;;
12585;SDS011;6358;50.760;0.282;2023-04-24T07:54:34;2.57;;;2.37;;
12585;SDS011;6358;50.760;0.282;2023-04-24T07:57:02;2.83;;;2.60;;
12585;SDS011;6358;50.760;0.282;2023-04-24T07:59:28;2.33;;;2.13;;
12585;SDS011;6358;50.760;0.282;2023-04-24T08:01:54;2.57;;;2.37;;
12585;SDS011;6358;50.760;0.282;2023-04-24T08:04:20;2.40;;;2.20;;
12585;SDS011;6358;50.760;0.282;2023-04-24T08:06:47;2.60;;;2.40;;
12585;SDS011;6358;50.760;0.282;2023-04-24T08:09:13;2.50;;;2.30;;
12585;SDS011;6358;50.760;0.282;2023-04-24T08:11:39;2.93;;;2.30;;
12585;SDS011;6358;50.760;0.282;2023-04-24T08:14:05;2.70;;;2.50;;
12585;SDS011;6358;50.760;0.282;2023-04-24T08:16:32;2.50;;;2.30;;
12585;SDS011;6358;50.760;0.282;2023-04-24T08:18:58;2.30;;;2.20;;
12585;SDS011;6358;50.760;0.282;2023-04-24T08:21:24;2.53;;;2.30;;
12585;SDS011;6358;50.760;0.282;2023-04-24T08:23:52;2.27;;;2.07;;
12585;SDS011;6358;50.760;0.282;2023-04-24T08:26:18;2.40;;;2.20;;
12585;SDS011;6358;50.760;0.282;2023-04-24T08:28:44;2.73;;;2.53;;
12585;SDS011;6358;50.760;0.282;2023-04-24T08:31:10;2.47;;;2.27;;
12585;SDS011;6358;50.760;0.282;2023-04-24T08:33:36;2.50;;;2.30;;
12585;SDS011;6358;50.760;0.282;2023-04-24T08:36:03;2.50;;;2.30;;
12585;SDS011;6358;50.760;0.282;2023-04-24T08:38:29;2.40;;;2.20;;
12585;SDS011;6358;50.760;0.282;2023-04-24T08:40:56;2.40;;;2.20;;
12585;SDS011;6358;50.760;0.282;2023-04-24T08:43:22;2.13;;;2.03;;
12585;SDS011;6358;50.760;0.282;2023-04-24T08:45:48;2.20;;;2.10;;
12585;SDS011;6358;50.760;0.282;2023-04-24T08:48:14;2.70;;;2.50;;
12585;SDS011;6358;50.760;0.282;2023-04-24T08:50:41;2.30;;;2.20;;
12585;SDS011;6358;50.760;0.282;2023-04-24T08:53:08;2.60;;;2.40;;
12585;SDS011;6358;50.760;0.282;2023-04-24T08:55:34;2.33;;;2.13;;
12585;SDS011;6358;50.760;0.282;2023-04-24T08:58:01;2.47;;;2.27;;
12585;SDS011;6358;50.760;0.282;2023-04-24T09:00:28;2.33;;;2.13;;
12585;SDS011;6358;50.760;0.282;2023-04-24T09:02:54;2.40;;;2.20;;
12585;SDS011;6358;50.760;0.282;2023-04-24T09:05:21;2.23;;;2.10;;
12585;SDS011;6358;50.760;0.282;2023-04-24T09:07:57;2.87;;;2.30;;
12585;SDS011;6358;50.760;0.282;2023-04-24T09:10:25;2.20;;;2.10;;
12585;SDS011;6358;50.760;0.282;2023-04-24T09:12:52;2.53;;;2.33;;
12585;SDS011;6358;50.760;0.282;2023-04-24T09:15:19;2.37;;;2.23;;
12585;SDS011;6358;50.760;0.282;2023-04-24T09:17:45;2.67;;;2.47;;
12585;SDS011;6358;50.760;0.282;2023-04-24T09:20:12;2.50;;;2.30;;
12585;SDS011;6358;50.760;0.282;2023-04-24T09:22:38;2.77;;;2.17;;
12585;SDS011;6358;50.760;0.282;2023-04-24T09:25:05;2.50;;;2.30;;
12585;SDS011;6358;50.760;0.282;2023-04-24T09:27:32;2.07;;;1.97;;
12585;SDS011;6358;50.760;0.282;2023-04-24T09:29:59;2.40;;;2.23;;
12585;SDS011;6358;50.760;0.282;2023-04-24T09:32:25;1.90;;;1.80;;
12585;SDS011;6358;50.760;0.282;2023-04-24T09:35:14;2.23;;;2.10;;
12585;SDS011;6358;50.760;0.282;2023-04-24T09:37:42;2.37;;;2.17;;
12585;SDS011;6358;50.760;0.282;2023-04-24T09:42:38;2.20;;;2.00;;
12585;SDS011;6358;50.760;0.282;2023-04-24T09:45:06;2.30;;;2.10;;
12585;SDS011;6358;50.760;0.282;2023-04-24T09:47:37;2.30;;;2.10;;
12585;SDS011;6358;50.760;0.282;2023-04-24T09:50:13;2.30;;;2.10;;
12585;SDS011;6358;50.760;0.282;2023-04-24T09:52:47;2.03;;;1.93;;
12585;SDS011;6358;50.760;0.282;2023-04-24T09:55:21;2.30;;;2.20;;
12585;SDS011;6358;50.760;0.282;2023-04-24T09:57:54;2.33;;;2.13;;
12585;SDS011;6358;50.760;0.282;2023-04-24T10:00:28;2.43;;;2.23;;
12585;SDS011;6358;50.760;0.282;2023-04-24T10:02:58;2.33;;;2.07;;
12585;SDS011;6358;50.760;0.282;2023-04-24T10:05:29;3.50;;;2.40;;
12585;SDS011;6358;50.760;0.282;2023-04-24T10:07:59;2.47;;;2.27;;
12585;SDS011;6358;50.760;0.282;2023-04-24T10:10:26;2.30;;;2.20;;
12585;SDS011;6358;50.760;0.282;2023-04-24T10:12:52;2.60;;;2.40;;
12585;SDS011;6358;50.760;0.282;2023-04-24T10:15:19;2.50;;;2.10;;
12585;SDS011;6358;50.760;0.282;2023-04-24T10:17:49;2.60;;;2.10;;
12585;SDS011;6358;50.760;0.282;2023-04-24T10:20:22;2.33;;;2.23;;
12585;SDS011;6358;50.760;0.282;2023-04-24T10:22:49;2.40;;;2.20;;
12585;SDS011;6358;50.760;0.282;2023-04-24T10:25:19;2.30;;;2.10;;
12585;SDS011;6358;50.760;0.282;2023-04-24T10:27:45;2.27;;;2.07;;
12585;SDS011;6358;50.760;0.282;2023-04-24T10:30:12;2.50;;;2.30;;
12585;SDS011;6358;50.760;0.282;2023-04-24T10:32:38;2.27;;;2.10;;
12585;SDS011;6358;50.760;0.282;2023-04-24T10:35:08;2.00;;;1.90;;
12585;SDS011;6358;50.760;0.282;2023-04-24T10:37:37;2.20;;;2.10;;
12585;SDS011;6358;50.760;0.282;2023-04-24T10:40:04;2.40;;;2.20;;
12585;SDS011;6358;50.760;0.282;2023-04-24T10:42:32;2.13;;;2.03;;
12585;SDS011;6358;50.760;0.282;2023-04-24T10:44:58;2.30;;;2.10;;
12585;SDS011;6358;50.760;0.282;2023-04-24T10:47:27;2.20;;;2.10;;
12585;SDS011;6358;50.760;0.282;2023-04-24T10:49:53;2.83;;;2.10;;
12585;SDS011;6358;50.760;0.282;2023-04-24T10:52:19;2.40;;;2.20;;
12585;SDS011;6358;50.760;0.282;2023-04-24T10:54:46;2.30;;;2.10;;
12585;SDS011;6358;50.760;0.282;2023-04-24T10:59:45;2.27;;;2.07;;
12585;SDS011;6358;50.760;0.282;2023-04-24T11:02:15;2.60;;;2.20;;
12585;SDS011;6358;50.760;0.282;2023-04-24T11:04:41;2.67;;;2.30;;
12585;SDS011;6358;50.760;0.282;2023-04-24T11:07:08;2.40;;;2.20;;
12585;SDS011;6358;50.760;0.282;2023-04-24T11:09:35;2.07;;;1.93;;
12585;SDS011;6358;50.760;0.282;2023-04-24T11:12:08;1.90;;;1.80;;
12585;SDS011;6358;50.760;0.282;2023-04-24T11:17:36;2.70;;;2.20;;
12585;SDS011;6358;50.760;0.282;2023-04-24T11:20:06;2.10;;;2.00;;
12585;SDS011;6358;50.760;0.282;2023-04-24T11:22:34;2.30;;;2.20;;
12585;SDS011;6358;50.760;0.282;2023-04-24T11:25:04;2.07;;;1.97;;
12585;SDS011;6358;50.760;0.282;2023-04-24T11:27:38;3.00;;;2.50;;
12585;SDS011;6358;50.760;0.282;2023-04-24T11:30:05;2.17;;;1.97;;
12585;SDS011;6358;50.760;0.282;2023-04-24T11:32:41;2.20;;;2.00;;
12585;SDS011;6358;50.760;0.282;2023-04-24T11:35:20;2.03;;;1.93;;
12585;SDS011;6358;50.760;0.282;2023-04-24T11:37:50;2.00;;;1.90;;
12585;SDS011;6358;50.760;0.282;2023-04-24T11:40:17;1.87;;;1.77;;
12585;SDS011;6358;50.760;0.282;2023-04-24T11:42:48;2.10;;;2.00;;
12585;SDS011;6358;50.760;0.282;2023-04-24T11:45:16;2.30;;;2.10;;
12585;SDS011;6358;50.760;0.282;2023-04-24T11:47:43;2.30;;;2.10;;
12585;SDS011;6358;50.760;0.282;2023-04-24T11:50:11;2.40;;;2.20;;
12585;SDS011;6358;50.760;0.282;2023-04-24T11:52:38;2.10;;;2.00;;
12585;SDS011;6358;50.760;0.282;2023-04-24T11:55:12;2.20;;;2.00;;
12585;SDS011;6358;50.760;0.282;2023-04-24T11:57:49;2.13;;;2.03;;
12585;SDS011;6358;50.760;0.282;2023-04-24T12:00:16;2.00;;;1.90;;
12585;SDS011;6358;50.760;0.282;2023-04-24T12:02:43;1.80;;;1.70;;
12585;SDS011;6358;50.760;0.282;2023-04-24T12:05:18;1.90;;;1.80;;
12585;SDS011;6358;50.760;0.282;2023-04-24T12:07:44;2.23;;;2.10;;
12585;SDS011;6358;50.760;0.282;2023-04-24T12:10:11;2.33;;;1.97;;
12585;SDS011;6358;50.760;0.282;2023-04-24T12:12:37;2.47;;;1.90;;
12585;SDS011;6358;50.760;0.282;2023-04-24T12:15:06;2.13;;;1.97;;
12585;SDS011;6358;50.760;0.282;2023-04-24T12:17:33;2.17;;;1.90;;
12585;SDS011;6358;50.760;0.282;2023-04-24T12:20:00;2.03;;;1.93;;
12585;SDS011;6358;50.760;0.282;2023-04-24T12:22:27;2.70;;;2.23;;
12585;SDS011;6358;50.760;0.282;2023-04-24T12:25:00;2.00;;;1.90;;
12585;SDS011;6358;50.760;0.282;2023-04-24T12:27:30;2.63;;;2.20;;
12585;SDS011;6358;50.760;0.282;2023-04-24T12:29:57;2.40;;;2.20;;
12585;SDS011;6358;50.760;0.282;2023-04-24T12:32:23;2.23;;;2.03;;
12585;SDS011;6358;50.760;0.282;2023-04-24T12:34:53;2.33;;;2.00;;
12585;SDS011;6358;50.760;0.282;2023-04-24T12:37:20;2.00;;;1.90;;
12585;SDS011;6358;50.760;0.282;2023-04-24T12:42:26;2.30;;;2.10;;
12585;SDS011;6358;50.760;0.282;2023-04-24T12:44:55;2.03;;;1.83;;
12585;SDS011;6358;50.760;0.282;2023-04-24T12:47:23;2.17;;;1.97;;
12585;SDS011;6358;50.760;0.282;2023-04-24T12:49:50;2.27;;;1.90;;
12585;SDS011;6358;50.760;0.282;2023-04-24T12:52:17;1.90;;;1.80;;
12585;SDS011;6358;50.760;0.282;2023-04-24T12:54:45;1.90;;;1.80;;
12585;SDS011;6358;50.760;0.282;2023-04-24T12:57:11;1.83;;;1.73;;
12585;SDS011;6358;50.760;0.282;2023-04-24T12:59:37;2.07;;;1.97;;
12585;SDS011;6358;50.760;0.282;2023-04-24T13:02:04;2.20;;;2.00;;
12585;SDS011;6358;50.760;0.282;2023-04-24T13:04:30;2.20;;;2.00;;
12585;SDS011;6358;50.760;0.282;2023-04-24T13:06:57;2.10;;;1.90;;
12585;SDS011;6358;50.760;0.282;2023-04-24T13:09:23;2.10;;;1.90;;
12585;SDS011;6358;50.760;0.282;2023-04-24T13:11:49;2.10;;;1.90;;
12585;SDS011;6358;50.760;0.282;2023-04-24T13:14:16;2.10;;;2.00;;
12585;SDS011;6358;50.760;0.282;2023-04-24T13:16:42;2.10;;;1.80;;
12585;SDS011;6358;50.760;0.282;2023-04-24T13:19:08;2.57;;;2.13;;
12585;SDS011;6358;50.760;0.282;2023-04-24T13:21:34;1.87;;;1.77;;
12585;SDS011;6358;50.760;0.282;2023-04-24T13:24:00;2.03;;;1.90;;
12585;SDS011;6358;50.760;0.282;2023-04-24T13:26:26;2.10;;;1.90;;
12585;SDS011;6358;50.760;0.282;2023-04-24T13:28:52;1.90;;;1.80;;
12585;SDS011;6358;50.760;0.282;2023-04-24T13:31:18;2.43;;;2.10;;
12585;SDS011;6358;50.760;0.282;2023-04-24T13:33:45;2.17;;;2.07;;
12585;SDS011;6358;50.760;0.282;2023-04-24T13:36:11;2.30;;;2.10;;
12585;SDS011;6358;50.760;0.282;2023-04-24T13:38:37;1.90;;;1.80;;
12585;SDS011;6358;50.760;0.282;2023-04-24T13:41:03;2.07;;;1.97;;
12585;SDS011;6358;50.760;0.282;2023-04-24T13:43:29;2.20;;;2.00;;
12585;SDS011;6358;50.760;0.282;2023-04-24T13:45:55;1.83;;;1.73;;
12585;SDS011;6358;50.760;0.282;2023-04-24T13:48:21;2.30;;;2.10;;
12585;SDS011;6358;50.760;0.282;2023-04-24T13:50:47;2.03;;;1.93;;
12585;SDS011;6358;50.760;0.282;2023-04-24T13:53:14;1.87;;;1.77;;
12585;SDS011;6358;50.760;0.282;2023-04-24T13:55:40;1.97;;;1.77;;
12585;SDS011;6358;50.760;0.282;2023-04-24T13:58:06;2.17;;;1.90;;
12585;SDS011;6358;50.760;0.282;2023-04-24T14:00:33;1.87;;;1.70;;
12585;SDS011;6358;50.760;0.282;2023-04-24T14:02:59;1.97;;;1.87;;
12585;SDS011;6358;50.760;0.282;2023-04-24T14:05:25;2.20;;;2.00;;
12585;SDS011;6358;50.760;0.282;2023-04-24T14:07:51;1.87;;;1.77;;
12585;SDS011;6358;50.760;0.282;2023-04-24T14:10:18;2.03;;;1.90;;
12585;SDS011;6358;50.760;0.282;2023-04-24T14:12:44;2.07;;;1.77;;
12585;SDS011;6358;50.760;0.282;2023-04-24T14:15:10;2.10;;;1.90;;
12585;SDS011;6358;50.760;0.282;2023-04-24T14:17:38;1.70;;;1.60;;
12585;SDS011;6358;50.760;0.282;2023-04-24T14:20:05;1.90;;;1.80;;
12585;SDS011;6358;50.760;0.282;2023-04-24T14:22:32;2.10;;;1.90;;
12585;SDS011;6358;50.760;0.282;2023-04-24T14:24:58;1.80;;;1.70;;
12585;SDS011;6358;50.760;0.282;2023-04-24T14:27:24;2.03;;;1.90;;
12585;SDS011;6358;50.760;0.282;2023-04-24T14:29:50;2.10;;;1.67;;
12585;SDS011;6358;50.760;0.282;2023-04-24T14:32:16;2.03;;;1.83;;
12585;SDS011;6358;50.760;0.282;2023-04-24T14:34:43;1.90;;;1.80;;
12585;SDS011;6358;50.760;0.282;2023-04-24T14:37:09;2.10;;;2.00;;
12585;SDS011;6358;50.760;0.282;2023-04-24T14:39:35;1.73;;;1.60;;
12585;SDS011;6358;50.760;0.282;2023-04-24T14:42:01;2.13;;;1.80;;
12585;SDS011;6358;50.760;0.282;2023-04-24T14:44:27;1.80;;;1.70;;
12585;SDS011;6358;50.760;0.282;2023-04-24T14:46:53;2.00;;;1.80;;
12585;SDS011;6358;50.760;0.282;2023-04-24T14:49:20;1.97;;;1.80;;
12585;SDS011;6358;50.760;0.282;2023-04-24T14:51:46;1.83;;;1.73;;
12585;SDS011;6358;50.760;0.282;2023-04-24T14:54:12;3.47;;;1.80;;
12585;SDS011;6358;50.760;0.282;2023-04-24T14:56:38;2.00;;;1.80;;
12585;SDS011;6358;50.760;0.282;2023-04-24T14:59:05;2.43;;;1.97;;
12585;SDS011;6358;50.760;0.282;2023-04-24T15:01:32;2.37;;;1.93;;
12585;SDS011;6358;50.760;0.282;2023-04-24T15:03:58;1.87;;;1.70;;
12585;SDS011;6358;50.760;0.282;2023-04-24T15:06:24;1.67;;;1.57;;
12585;SDS011;6358;50.760;0.282;2023-04-24T15:08:50;2.13;;;1.80;;